Time,TemperatureF,DewpointF,PressureIn,WindDirection,WindDirectionDegrees,WindSpeedMPH,WindSpeedGustMPH,Humidity,HourlyPrecipIn,Conditions,Clouds,dailyrainin,SoftwareType,DateUTC
2013-04-13 00:00:00,44.6,44.1,29.69,North,0,0.0,-999.0,98,-99.99,,,0.00,Acu-Link.com,2013-04-13 05:00:00,
2013-04-13 00:15:00,44.4,43.9,29.69,North,0,0.0,-999.0,98,-99.99,,,0.00,Acu-Link.com,2013-04-13 05:15:00,
2013-04-13 00:30:00,43.9,43.4,29.69,North,0,0.0,-999.0,98,-99.99,,,0.00,Acu-Link.com,2013-04-13 05:30:00,
2013-04-13 00:45:00,43.7,43.2,29.69,North,0,0.0,-999.0,98,-99.99,,,0.00,Acu-Link.com,2013-04-13 05:45:00,
2013-04-13 01:00:00,43.0,42.5,29.69,North,0,0.0,-999.0,98,-99.99,,,0.00,Acu-Link.com,2013-04-13 06:00:00,
2013-04-13 01:15:00,43.2,42.7,29.69,North,0,0.0,-999.0,98,-99.99,,,0.00,Acu-Link.com,2013-04-13 06:15:00,
2013-04-13 01:30:00,42.8,42.3,29.69,North,0,0.0,-999.0,98,-99.99,,,0.00,Acu-Link.com,2013-04-13 06:30:00,
2013-04-13 01:45:00,42.6,42.1,29.69,North,0,0.0,-999.0,98,-99.99,,,0.00,Acu-Link.com,2013-04-13 06:45:00,
2013-04-13 02:00:00,42.4,41.9,29.69,North,0,0.0,-999.0,98,-99.99,,,0.00,Acu-Link.com,2013-04-13 07:00:00,
2013-04-13 02:16:00,42.1,41.6,29.69,North,0,0.0,-999.0,98,-99.99,,,0.00,Acu-Link.com,2013-04-13 07:16:00,
2013-04-13 02:46:00,42.3,41.8,29.70,North,0,0.0,-999.0,98,-99.99,,,0.00,Acu-Link.com,2013-04-13 07:46:00,
2013-04-13 03:17:00,41.9,41.4,29.70,North,0,0.0,-999.0,98,-99.99,,,0.00,Acu-Link.com,2013-04-13 08:17:00,
2013-04-13 03:32:00,41.9,41.4,29.71,North,0,0.0,-999.0,98,-99.99,,,0.00,Acu-Link.com,2013-04-13 08:32:00,
2013-04-13 03:47:00,41.5,41.0,29.71,North,0,0.0,-999.0,98,-99.99,,,0.00,Acu-Link.com,2013-04-13 08:47:00,
2013-04-13 04:32:00,40.6,40.1,29.72,North,0,0.0,-999.0,98,-99.99,,,0.00,Acu-Link.com,2013-04-13 09:32:00,
2013-04-13 04:47:00,40.6,40.1,29.72,North,0,0.0,-999.0,98,-99.99,,,0.00,Acu-Link.com,2013-04-13 09:47:00,
2013-04-13 05:03:00,40.8,40.3,29.72,North,0,0.0,-999.0,98,-99.99,,,0.00,Acu-Link.com,2013-04-13 10:03:00,
2013-04-13 05:18:00,40.3,39.8,29.73,North,0,0.0,-999.0,98,-99.99,,,0.00,Acu-Link.com,2013-04-13 10:18:00,
2013-04-13 05:48:00,39.9,39.4,29.73,North,0,0.0,-999.0,98,-99.99,,,0.00,Acu-Link.com,2013-04-13 10:48:00,
2013-04-13 06:18:00,39.9,39.4,29.75,North,0,0.0,-999.0,98,-99.99,,,0.00,Acu-Link.com,2013-04-13 11:18:00,
2013-04-13 06:33:00,40.3,39.8,29.76,North,0,0.0,-999.0,98,-99.99,,,0.00,Acu-Link.com,2013-04-13 11:33:00,
2013-04-13 06:48:00,41.4,40.9,29.76,North,0,0.0,-999.0,98,-99.99,,,0.00,Acu-Link.com,2013-04-13 11:48:00,
2013-04-13 07:04:00,43.0,42.5,29.77,North,0,0.0,-999.0,98,-99.99,,,0.00,Acu-Link.com,2013-04-13 12:04:00,
2013-04-13 07:49:00,54.5,53.9,29.78,North,0,0.0,-999.0,98,-99.99,,,0.00,Acu-Link.com,2013-04-13 12:49:00,
2013-04-13 08:04:00,58.5,57.9,29.79,East,90,0.0,-999.0,98,-99.99,,,0.00,Acu-Link.com,2013-04-13 13:04:00,
2013-04-13 08:34:00,60.3,59.7,29.79,ENE,67,2.2,-999.0,98,-99.99,,,0.00,Acu-Link.com,2013-04-13 13:34:00,
2013-04-13 08:50:00,60.4,59.8,29.79,NNE,22,3.2,-999.0,98,-99.99,,,0.00,Acu-Link.com,2013-04-13 13:50:00,
2013-04-13 09:05:00,61.9,61.3,29.79,NE,45,3.2,-999.0,98,-99.99,,,0.00,Acu-Link.com,2013-04-13 14:05:00,
2013-04-13 09:20:00,62.6,62.0,29.79,ESE,112,3.2,-999.0,98,-99.99,,,0.00,Acu-Link.com,2013-04-13 14:20:00,
2013-04-13 09:35:00,63.1,59.2,29.80,NE,45,3.2,-999.0,87,-99.99,,,0.00,Acu-Link.com,2013-04-13 14:35:00,
2013-04-13 09:50:00,64.0,58.7,29.80,East,90,3.7,-999.0,83,-99.99,,,0.00,Acu-Link.com,2013-04-13 14:50:00,
2013-04-13 10:05:00,63.3,58.7,29.80,SE,135,1.1,-999.0,85,-99.99,,,0.00,Acu-Link.com,2013-04-13 15:05:00,
2013-04-13 10:20:00,65.5,59.5,29.81,SE,135,2.2,-999.0,81,-99.99,,,0.00,Acu-Link.com,2013-04-13 15:20:00,
2013-04-13 10:35:00,65.7,59.4,29.80,WNW,292,9.4,-999.0,80,-99.99,,,0.00,Acu-Link.com,2013-04-13 15:35:00,
2013-04-13 10:51:00,65.5,58.1,29.80,WNW,292,6.3,-999.0,77,-99.99,,,0.00,Acu-Link.com,2013-04-13 15:51:00,
2013-04-13 11:06:00,68.4,60.2,29.81,ESE,112,3.2,-999.0,75,-99.99,,,0.00,Acu-Link.com,2013-04-13 16:06:00,
2013-04-13 11:21:00,69.3,59.9,29.80,NE,45,5.8,-999.0,72,-99.99,,,0.00,Acu-Link.com,2013-04-13 16:21:00,
2013-04-13 12:21:00,71.4,59.0,29.78,SSE,157,2.2,-999.0,65,-99.99,,,0.00,Acu-Link.com,2013-04-13 17:21:00,
2013-04-13 13:07:00,75.2,56.3,29.77,NE,45,5.3,-999.0,52,-99.99,,,0.00,Acu-Link.com,2013-04-13 18:07:00,
2013-04-13 14:07:00,76.5,55.9,29.74,NNE,22,2.7,-999.0,49,-99.99,,,0.00,Acu-Link.com,2013-04-13 19:07:00,
2013-04-13 14:22:00,78.3,57.0,29.74,ESE,112,3.2,-999.0,48,-99.99,,,0.00,Acu-Link.com,2013-04-13 19:22:00,
2013-04-13 14:53:00,77.7,56.4,29.72,NE,45,4.7,-999.0,48,-99.99,,,0.00,Acu-Link.com,2013-04-13 19:53:00,
2013-04-13 15:08:00,76.3,55.7,29.71,West,270,4.2,-999.0,49,-99.99,,,0.00,Acu-Link.com,2013-04-13 20:08:00,
2013-04-13 15:23:00,77.2,57.1,29.71,East,90,2.2,-999.0,50,-99.99,,,0.00,Acu-Link.com,2013-04-13 20:23:00,
2013-04-13 15:38:00,76.8,55.6,29.70,WNW,292,4.2,-999.0,48,-99.99,,,0.00,Acu-Link.com,2013-04-13 20:38:00,
2013-04-13 15:53:00,79.0,58.8,29.69,NNE,22,3.2,-999.0,50,-99.99,,,0.00,Acu-Link.com,2013-04-13 20:53:00,
2013-04-13 16:08:00,77.4,54.4,29.68,WNW,292,6.8,-999.0,45,-99.99,,,0.00,Acu-Link.com,2013-04-13 21:08:00,
2013-04-13 16:23:00,79.2,57.2,29.68,NE,45,1.7,-999.0,47,-99.99,,,0.00,Acu-Link.com,2013-04-13 21:23:00,
2013-04-13 16:38:00,79.0,55.8,29.67,West,270,4.2,-999.0,45,-99.99,,,0.00,Acu-Link.com,2013-04-13 21:38:00,
2013-04-13 16:53:00,78.3,53.9,29.67,NNE,22,2.7,-999.0,43,-99.99,,,0.00,Acu-Link.com,2013-04-13 21:53:00,
2013-04-13 17:09:00,78.6,54.2,29.67,WNW,292,2.7,-999.0,43,-99.99,,,0.00,Acu-Link.com,2013-04-13 22:09:00,
2013-04-13 17:24:00,77.7,53.4,29.67,North,0,3.7,-999.0,43,-99.99,,,0.00,Acu-Link.com,2013-04-13 22:24:00,
2013-04-13 17:39:00,79.0,54.6,29.67,West,270,1.7,-999.0,43,-99.99,,,0.00,Acu-Link.com,2013-04-13 22:39:00,
2013-04-13 17:54:00,78.6,53.6,29.67,North,0,2.2,-999.0,42,-99.99,,,0.00,Acu-Link.com,2013-04-13 22:54:00,
2013-04-13 18:09:00,76.5,52.9,29.67,West,270,1.1,-999.0,44,-99.99,,,0.00,Acu-Link.com,2013-04-13 23:09:00,
2013-04-13 18:24:00,73.6,53.8,29.68,NNE,22,0.0,-999.0,50,-99.99,,,0.00,Acu-Link.com,2013-04-13 23:24:00,
2013-04-13 18:39:00,72.0,53.4,29.67,WNW,292,0.0,-999.0,52,-99.99,,,0.00,Acu-Link.com,2013-04-13 23:39:00,
2013-04-13 18:54:00,69.1,55.1,29.67,West,270,0.0,-999.0,61,-99.99,,,0.00,Acu-Link.com,2013-04-13 23:54:00,
2013-04-13 19:09:00,66.2,59.8,29.68,SSW,202,0.0,-999.0,80,-99.99,,,0.00,Acu-Link.com,2013-04-14 00:09:00,
2013-04-13 19:25:00,64.0,62.8,29.68,SW,225,0.0,-999.0,96,-99.99,,,0.00,Acu-Link.com,2013-04-14 00:25:00,
2013-04-13 19:40:00,61.2,60.6,29.69,South,180,0.0,-999.0,98,-99.99,,,0.00,Acu-Link.com,2013-04-14 00:40:00,
2013-04-13 19:55:00,59.9,59.3,29.69,SSW,202,0.0,-999.0,98,-99.99,,,0.00,Acu-Link.com,2013-04-14 00:55:00,
2013-04-13 20:10:00,57.7,57.1,29.69,South,180,0.0,-999.0,98,-99.99,,,0.00,Acu-Link.com,2013-04-14 01:10:00,
2013-04-13 20:25:00,56.7,56.1,29.70,NNW,337,0.0,-999.0,98,-99.99,,,0.00,Acu-Link.com,2013-04-14 01:25:00,
2013-04-13 20:40:00,55.6,55.0,29.70,NW,315,0.0,-999.0,98,-99.99,,,0.00,Acu-Link.com,2013-04-14 01:40:00,
2013-04-13 20:55:00,54.3,53.7,29.70,SSW,202,0.0,-999.0,98,-99.99,,,0.00,Acu-Link.com,2013-04-14 01:55:00,
2013-04-13 21:10:00,53.4,52.8,29.70,ENE,67,0.0,-999.0,98,-99.99,,,0.00,Acu-Link.com,2013-04-14 02:10:00,
2013-04-13 21:25:00,52.9,52.4,29.71,SSE,157,0.0,-999.0,98,-99.99,,,0.00,Acu-Link.com,2013-04-14 02:25:00,
2013-04-13 21:40:00,51.8,51.3,29.70,NNW,337,0.0,-999.0,98,-99.99,,,0.00,Acu-Link.com,2013-04-14 02:40:00,
2013-04-13 21:56:00,51.6,51.1,29.71,NNW,337,0.0,-999.0,98,-99.99,,,0.00,Acu-Link.com,2013-04-14 02:56:00,
2013-04-13 22:26:00,50.2,49.7,29.72,NNW,337,0.0,-999.0,98,-99.99,,,0.00,Acu-Link.com,2013-04-14 03:26:00,
2013-04-13 22:56:00,49.3,48.8,29.73,NNW,337,0.0,-999.0,98,-99.99,,,0.00,Acu-Link.com,2013-04-14 03:56:00,
2013-04-13 23:11:00,48.6,48.1,29.73,NNW,337,0.0,-999.0,98,-99.99,,,0.00,Acu-Link.com,2013-04-14 04:11:00,
2013-04-13 23:26:00,48.4,47.9,29.73,NNW,337,0.0,-999.0,98,-99.99,,,0.00,Acu-Link.com,2013-04-14 04:26:00,
2013-04-13 23:41:00,48.0,47.5,29.73,NNW,337,0.0,-999.0,98,-99.99,,,0.00,Acu-Link.com,2013-04-14 04:41:00,
2013-04-13 23:56:00,48.0,47.5,29.73,NNW,337,0.0,-999.0,98,-99.99,,,0.00,Acu-Link.com,2013-04-14 04:56:00,